sensor_id;sensor_type;location;lat;lon;timestamp;pressure;altitude;pressure_sealevel;temperature;humidity
7168;BME280;3625;51.762;14.320;2023-04-08T00:01:36;101043.34;;;5.92;100.00
7168;BME280;3625;51.762;14.320;2023-04-08T00:04:04;101040.69;;;5.90;100.00
7168;BME280;3625;51.762;14.320;2023-04-08T00:06:37;101038.97;;;5.94;100.00
7168;BME280;3625;51.762;14.320;2023-04-08T00:09:06;101042.47;;;5.97;100.00
7168;BME280;3625;51.762;14.320;2023-04-08T00:11:34;101044.25;;;6.00;100.00
7168;BME280;3625;51.762;14.320;2023-04-08T00:14:04;101034.63;;;5.96;100.00
7168;BME280;3625;51.762;14.320;2023-04-08T00:16:33;100973.97;;;5.62;100.00
7168;BME280;3625;51.762;14.320;2023-04-08T00:19:01;101039.03;;;6.06;100.00
7168;BME280;3625;51.762;14.320;2023-04-08T00:21:30;101042.47;;;5.97;100.00
7168;BME280;3625;51.762;14.320;2023-04-08T00:24:00;101001.25;;;5.83;100.00
7168;BME280;3625;51.762;14.320;2023-04-08T00:26:29;101037.28;;;6.03;100.00
7168;BME280;3625;51.762;14.320;2023-04-08T00:28:58;101039.03;;;6.04;100.00
7168;BME280;3625;51.762;14.320;2023-04-08T00:31:26;101038.22;;;6.13;100.00
7168;BME280;3625;51.762;14.320;2023-04-08T00:33:55;101036.47;;;6.12;100.00
7168;BME280;3625;51.762;14.320;2023-04-08T00:36:25;101048.72;;;6.13;100.00
7168;BME280;3625;51.762;14.320;2023-04-08T00:38:54;101040.81;;;6.09;100.00
7168;BME280;3625;51.762;14.320;2023-04-08T00:41:24;101049.56;;;6.11;100.00
7168;BME280;3625;51.762;14.320;2023-04-08T00:43:52;101043.47;;;6.12;100.00
7168;BME280;3625;51.762;14.320;2023-04-08T00:46:21;101043.47;;;6.12;100.00
7168;BME280;3625;51.762;14.320;2023-04-08T00:48:50;101042.56;;;6.14;100.00
7168;BME280;3625;51.762;14.320;2023-04-08T00:51:19;101046.97;;;6.15;100.00
7168;BME280;3625;51.762;14.320;2023-04-08T00:53:48;101041.72;;;6.14;100.00
7168;BME280;3625;51.762;14.320;2023-04-08T00:56:16;101048.72;;;6.15;100.00
7168;BME280;3625;51.762;14.320;2023-04-08T00:58:46;101017.06;;;5.92;100.00
7168;BME280;3625;51.762;14.320;2023-04-08T01:01:25;100953.00;;;5.61;100.00
7168;BME280;3625;51.762;14.320;2023-04-08T01:04:09;101052.22;;;6.11;100.00
7168;BME280;3625;51.762;14.320;2023-04-08T01:06:49;101033.75;;;5.95;100.00
7168;BME280;3625;51.762;14.320;2023-04-08T01:09:22;101049.53;;;6.03;100.00
7168;BME280;3625;51.762;14.320;2023-04-08T01:11:54;101057.47;;;6.11;100.00
7168;BME280;3625;51.762;14.320;2023-04-08T01:14:27;101057.50;;;6.14;100.00
7168;BME280;3625;51.762;14.320;2023-04-08T01:16:59;101044.28;;;6.03;100.00
7168;BME280;3625;51.762;14.320;2023-04-08T01:19:30;101051.31;;;6.09;100.00
7168;BME280;3625;51.762;14.320;2023-04-08T01:22:09;101061.00;;;6.19;100.00
7168;BME280;3625;51.762;14.320;2023-04-08T01:24:43;101058.34;;;6.16;100.00
7168;BME280;3625;51.762;14.320;2023-04-08T01:27:15;101057.50;;;6.20;100.00
7168;BME280;3625;51.762;14.320;2023-04-08T01:29:46;101050.50;;;6.20;100.00
7168;BME280;3625;51.762;14.320;2023-04-08T01:32:16;101057.50;;;6.23;100.00
7168;BME280;3625;51.762;14.320;2023-04-08T01:34:46;101052.25;;;6.18;100.00
7168;BME280;3625;51.762;14.320;2023-04-08T01:37:16;101048.72;;;6.13;100.00
7168;BME280;3625;51.762;14.320;2023-04-08T01:39:47;101003.00;;;5.84;100.00
7168;BME280;3625;51.762;14.320;2023-04-08T01:42:19;101041.75;;;6.21;100.00
7168;BME280;3625;51.762;14.320;2023-04-08T01:44:51;100966.16;;;5.68;100.00
7168;BME280;3625;51.762;14.320;2023-04-08T01:47:21;101045.19;;;6.14;100.00
7168;BME280;3625;51.762;14.320;2023-04-08T01:49:51;100971.44;;;5.70;100.00
7168;BME280;3625;51.762;14.320;2023-04-08T01:52:22;101053.16;;;6.26;100.00
7168;BME280;3625;51.762;14.320;2023-04-08T01:54:53;101054.06;;;6.30;100.00
7168;BME280;3625;51.762;14.320;2023-04-08T01:57:27;101057.53;;;6.32;100.00
7168;BME280;3625;51.762;14.320;2023-04-08T02:00:21;101053.16;;;6.28;100.00
7168;BME280;3625;51.762;14.320;2023-04-08T02:02:53;101061.91;;;6.25;100.00
7168;BME280;3625;51.762;14.320;2023-04-08T02:05:23;101061.94;;;6.30;100.00
7168;BME280;3625;51.762;14.320;2023-04-08T02:07:51;101066.25;;;6.23;100.00
7168;BME280;3625;51.762;14.320;2023-04-08T02:10:20;101071.53;;;6.22;100.00
7168;BME280;3625;51.762;14.320;2023-04-08T02:12:50;100976.66;;;5.67;100.00
7168;BME280;3625;51.762;14.320;2023-04-08T02:15:19;101081.19;;;6.27;100.00
7168;BME280;3625;51.762;14.320;2023-04-08T02:17:53;101080.31;;;6.27;100.00
7168;BME280;3625;51.762;14.320;2023-04-08T02:20:29;101077.72;;;6.36;100.00
7168;BME280;3625;51.762;14.320;2023-04-08T02:23:08;101079.44;;;6.32;100.00
7168;BME280;3625;51.762;14.320;2023-04-08T02:25:44;101084.75;;;6.40;100.00
7168;BME280;3625;51.762;14.320;2023-04-08T02:28:17;101079.50;;;6.38;100.00
7168;BME280;3625;51.762;14.320;2023-04-08T02:30:50;101079.47;;;6.40;100.00
7168;BME280;3625;51.762;14.320;2023-04-08T02:33:21;101079.53;;;6.44;100.00
7168;BME280;3625;51.762;14.320;2023-04-08T02:35:53;101075.13;;;6.39;100.00
7168;BME280;3625;51.762;14.320;2023-04-08T02:38:23;101079.50;;;6.41;100.00
7168;BME280;3625;51.762;14.320;2023-04-08T02:40:56;101086.53;;;6.39;100.00
7168;BME280;3625;51.762;14.320;2023-04-08T02:43:26;101083.00;;;6.42;100.00
7168;BME280;3625;51.762;14.320;2023-04-08T02:45:59;101082.97;;;6.34;100.00
7168;BME280;3625;51.762;14.320;2023-04-08T02:48:30;101039.94;;;6.11;100.00
7168;BME280;3625;51.762;14.320;2023-04-08T02:50:59;101083.00;;;6.37;100.00
7168;BME280;3625;51.762;14.320;2023-04-08T02:53:27;101092.59;;;6.32;100.00
7168;BME280;3625;51.762;14.320;2023-04-08T02:55:56;101089.97;;;6.34;100.00
7168;BME280;3625;51.762;14.320;2023-04-08T02:58:26;101090.84;;;6.33;100.00
7168;BME280;3625;51.762;14.320;2023-04-08T03:00:55;101094.38;;;6.36;100.00
7168;BME280;3625;51.762;14.320;2023-04-08T03:03:23;101093.53;;;6.42;100.00
7168;BME280;3625;51.762;14.320;2023-04-08T03:05:56;101097.06;;;6.49;100.00
7168;BME280;3625;51.762;14.320;2023-04-08T03:08:25;101085.69;;;6.48;100.00
7168;BME280;3625;51.762;14.320;2023-04-08T03:10:54;101085.66;;;6.45;100.00
7168;BME280;3625;51.762;14.320;2023-04-08T03:13:22;101092.69;;;6.46;100.00
7168;BME280;3625;51.762;14.320;2023-04-08T03:15:53;101101.44;;;6.45;100.00
7168;BME280;3625;51.762;14.320;2023-04-08T03:18:22;100952.16;;;5.66;100.00
7168;BME280;3625;51.762;14.320;2023-04-08T03:20:50;101100.56;;;6.51;100.00
7168;BME280;3625;51.762;14.320;2023-04-08T03:23:19;101105.88;;;6.55;100.00
7168;BME280;3625;51.762;14.320;2023-04-08T03:25:48;101109.38;;;6.57;100.00
7168;BME280;3625;51.762;14.320;2023-04-08T03:28:16;101114.63;;;6.56;100.00
7168;BME280;3625;51.762;14.320;2023-04-08T03:30:45;101120.78;;;6.56;100.00
7168;BME280;3625;51.762;14.320;2023-04-08T03:33:15;101012.72;;;5.94;100.00
7168;BME280;3625;51.762;14.320;2023-04-08T03:35:43;101119.00;;;6.58;100.00
7168;BME280;3625;51.762;14.320;2023-04-08T03:38:12;101125.19;;;6.65;100.00
7168;BME280;3625;51.762;14.320;2023-04-08T03:40:41;101123.44;;;6.68;100.00
7168;BME280;3625;51.762;14.320;2023-04-08T03:43:09;101127.81;;;6.65;100.00
7168;BME280;3625;51.762;14.320;2023-04-08T03:45:39;101126.94;;;6.64;100.00
7168;BME280;3625;51.762;14.320;2023-04-08T03:48:08;101121.69;;;6.75;100.00
7168;BME280;3625;51.762;14.320;2023-04-08T03:50:38;101126.94;;;6.70;100.00
7168;BME280;3625;51.762;14.320;2023-04-08T03:53:06;101127.84;;;6.71;100.00
7168;BME280;3625;51.762;14.320;2023-04-08T03:55:37;101131.38;;;6.74;100.00
7168;BME280;3625;51.762;14.320;2023-04-08T03:58:06;101136.59;;;6.76;100.00
7168;BME280;3625;51.762;14.320;2023-04-08T04:00:35;101131.34;;;6.76;100.00
7168;BME280;3625;51.762;14.320;2023-04-08T04:03:03;101137.53;;;6.82;100.00
7168;BME280;3625;51.762;14.320;2023-04-08T04:05:33;101141.03;;;6.85;100.00
7168;BME280;3625;51.762;14.320;2023-04-08T04:08:03;101080.41;;;6.50;100.00
7168;BME280;3625;51.762;14.320;2023-04-08T04:10:31;101152.44;;;6.87;100.00
7168;BME280;3625;51.762;14.320;2023-04-08T04:13:00;101147.19;;;6.90;100.00
7168;BME280;3625;51.762;14.320;2023-04-08T04:15:29;101148.97;;;7.01;100.00
7168;BME280;3625;51.762;14.320;2023-04-08T04:17:58;101156.88;;;7.01;100.00
7168;BME280;3625;51.762;14.320;2023-04-08T04:20:26;101160.38;;;6.97;100.00
7168;BME280;3625;51.762;14.320;2023-04-08T04:22:56;101155.97;;;6.93;100.00
7168;BME280;3625;51.762;14.320;2023-04-08T04:25:26;101158.63;;;6.96;100.00
7168;BME280;3625;51.762;14.320;2023-04-08T04:27:54;101165.63;;;7.02;100.00
7168;BME280;3625;51.762;14.320;2023-04-08T04:30:23;101167.41;;;7.00;100.00
7168;BME280;3625;51.762;14.320;2023-04-08T04:32:52;101154.19;;;6.88;100.00
7168;BME280;3625;51.762;14.320;2023-04-08T04:35:21;101171.78;;;6.99;100.00
7168;BME280;3625;51.762;14.320;2023-04-08T04:37:49;101180.56;;;7.04;100.00
7168;BME280;3625;51.762;14.320;2023-04-08T04:40:18;101183.19;;;7.03;100.00
7168;BME280;3625;51.762;14.320;2023-04-08T04:42:48;101180.56;;;7.06;100.00
7168;BME280;3625;51.762;14.320;2023-04-08T04:45:16;101178.81;;;7.09;100.00
7168;BME280;3625;51.762;14.320;2023-04-08T04:47:45;101174.47;;;7.13;100.00
7168;BME280;3625;51.762;14.320;2023-04-08T04:50:14;101177.97;;;7.15;100.00
7168;BME280;3625;51.762;14.320;2023-04-08T04:52:42;101177.09;;;7.13;100.00
7168;BME280;3625;51.762;14.320;2023-04-08T04:55:11;101187.66;;;7.22;100.00
7168;BME280;3625;51.762;14.320;2023-04-08T04:57:39;101184.13;;;7.28;100.00
7168;BME280;3625;51.762;14.320;2023-04-08T05:00:11;101185.03;;;7.31;100.00
7168;BME280;3625;51.762;14.320;2023-04-08T05:02:40;101185.91;;;7.36;100.00
7168;BME280;3625;51.762;14.320;2023-04-08T05:05:08;101195.59;;;7.39;100.00
7168;BME280;3625;51.762;14.320;2023-04-08T05:07:40;101193.84;;;7.42;100.00
7168;BME280;3625;51.762;14.320;2023-04-08T05:10:11;101195.63;;;7.43;100.00
7168;BME280;3625;51.762;14.320;2023-04-08T05:12:40;101191.22;;;7.42;100.00
7168;BME280;3625;51.762;14.320;2023-04-08T05:15:10;101199.97;;;7.44;100.00
7168;BME280;3625;51.762;14.320;2023-04-08T05:17:39;101196.47;;;7.45;100.00
7168;BME280;3625;51.762;14.320;2023-04-08T05:20:08;101200.88;;;7.49;100.00
7168;BME280;3625;51.762;14.320;2023-04-08T05:22:37;101201.75;;;7.48;100.00
7168;BME280;3625;51.762;14.320;2023-04-08T05:25:06;101206.16;;;7.57;100.00
7168;BME280;3625;51.762;14.320;2023-04-08T05:27:35;101214.06;;;7.63;100.00
7168;BME280;3625;51.762;14.320;2023-04-08T05:30:04;101214.94;;;7.70;100.00
7168;BME280;3625;51.762;14.320;2023-04-08T05:32:34;101218.47;;;7.72;100.00
7168;BME280;3625;51.762;14.320;2023-04-08T05:35:04;101223.75;;;7.75;100.00
7168;BME280;3625;51.762;14.320;2023-04-08T05:37:32;101225.47;;;7.64;100.00
7168;BME280;3625;51.762;14.320;2023-04-08T05:40:01;101224.63;;;7.75;100.00
7168;BME280;3625;51.762;14.320;2023-04-08T05:42:30;101222.84;;;7.62;100.00
7168;BME280;3625;51.762;14.320;2023-04-08T05:44:59;101201.75;;;7.47;100.00
7168;BME280;3625;51.762;14.320;2023-04-08T05:47:27;101231.66;;;7.81;100.00
7168;BME280;3625;51.762;14.320;2023-04-08T05:50:12;101233.41;;;7.76;100.00
7168;BME280;3625;51.762;14.320;2023-04-08T05:52:47;101240.44;;;7.81;100.00
7168;BME280;3625;51.762;14.320;2023-04-08T05:55:15;101234.28;;;7.79;100.00
7168;BME280;3625;51.762;14.320;2023-04-08T05:57:44;101255.38;;;7.97;100.00
7168;BME280;3625;51.762;14.320;2023-04-08T06:00:30;101239.56;;;7.84;100.00
7168;BME280;3625;51.762;14.320;2023-04-08T06:02:59;101247.50;;;8.10;100.00
7168;BME280;3625;51.762;14.320;2023-04-08T06:05:30;101251.00;;;7.95;100.00
7168;BME280;3625;51.762;14.320;2023-04-08T06:07:59;101250.97;;;7.89;100.00
7168;BME280;3625;51.762;14.320;2023-04-08T06:10:27;101258.88;;;7.87;100.00
7168;BME280;3625;51.762;14.320;2023-04-08T06:12:56;101263.28;;;7.93;100.00
7168;BME280;3625;51.762;14.320;2023-04-08T06:15:25;101273.84;;;7.93;100.00
7168;BME280;3625;51.762;14.320;2023-04-08T06:17:54;101277.38;;;8.12;100.00
7168;BME280;3625;51.762;14.320;2023-04-08T06:20:22;101273.84;;;8.07;100.00
7168;BME280;3625;51.762;14.320;2023-04-08T06:22:53;101284.41;;;8.17;100.00
7168;BME280;3625;51.762;14.320;2023-04-08T06:25:21;101287.91;;;7.95;100.00
7168;BME280;3625;51.762;14.320;2023-04-08T06:27:49;101270.28;;;7.80;100.00
7168;BME280;3625;51.762;14.320;2023-04-08T06:30:18;101282.59;;;7.87;100.00
7168;BME280;3625;51.762;14.320;2023-04-08T06:32:48;101281.75;;;8.02;100.00
7168;BME280;3625;51.762;14.320;2023-04-08T06:35:17;101294.97;;;8.40;100.00
7168;BME280;3625;51.762;14.320;2023-04-08T06:37:45;101297.59;;;8.20;100.00
7168;BME280;3625;51.762;14.320;2023-04-08T06:40:15;101308.16;;;8.29;100.00
7168;BME280;3625;51.762;14.320;2023-04-08T06:42:44;101292.31;;;8.20;100.00
7168;BME280;3625;51.762;14.320;2023-04-08T06:45:28;101305.53;;;8.31;100.00
7168;BME280;3625;51.762;14.320;2023-04-08T06:47:58;101304.59;;;8.30;100.00
7168;BME280;3625;51.762;14.320;2023-04-08T06:50:27;101316.09;;;8.36;100.00
7168;BME280;3625;51.762;14.320;2023-04-08T06:52:55;101310.81;;;8.52;100.00
7168;BME280;3625;51.762;14.320;2023-04-08T06:55:25;101311.69;;;8.68;100.00
7168;BME280;3625;51.762;14.320;2023-04-08T06:57:54;101312.50;;;9.03;100.00
7168;BME280;3625;51.762;14.320;2023-04-08T07:00:22;101320.25;;;9.55;100.00
7168;BME280;3625;51.762;14.320;2023-04-08T07:02:51;101321.13;;;9.57;100.00
7168;BME280;3625;51.762;14.320;2023-04-08T07:05:20;101333.56;;;9.34;100.00
7168;BME280;3625;51.762;14.320;2023-04-08T07:07:48;101335.34;;;9.21;100.00
7168;BME280;3625;51.762;14.320;2023-04-08T07:10:17;101340.47;;;9.61;100.00
7168;BME280;3625;51.762;14.320;2023-04-08T07:12:47;101316.03;;;8.96;100.00
7168;BME280;3625;51.762;14.320;2023-04-08T07:15:15;101292.28;;;8.96;100.00
7168;BME280;3625;51.762;14.320;2023-04-08T07:17:44;101338.72;;;9.63;100.00
7168;BME280;3625;51.762;14.320;2023-04-08T07:20:13;101344.13;;;9.32;100.00
7168;BME280;3625;51.762;14.320;2023-04-08T07:22:42;101351.94;;;9.64;100.00
7168;BME280;3625;51.762;14.320;2023-04-08T07:25:11;101349.47;;;9.08;100.00
7168;BME280;3625;51.762;14.320;2023-04-08T07:27:40;101358.25;;;9.07;100.00
7168;BME280;3625;51.762;14.320;2023-04-08T07:30:10;101330.00;;;9.36;100.00
7168;BME280;3625;51.762;14.320;2023-04-08T07:32:40;101376.56;;;9.74;100.00
7168;BME280;3625;51.762;14.320;2023-04-08T07:35:09;101364.19;;;9.77;100.00
7168;BME280;3625;51.762;14.320;2023-04-08T07:37:37;101350.03;;;9.92;100.00
7168;BME280;3625;51.762;14.320;2023-04-08T07:40:08;101366.66;;;10.20;100.00
7168;BME280;3625;51.762;14.320;2023-04-08T07:42:36;101372.75;;;10.31;100.00
7168;BME280;3625;51.762;14.320;2023-04-08T07:45:09;101371.63;;;10.64;100.00
7168;BME280;3625;51.762;14.320;2023-04-08T07:47:38;101378.09;;;10.22;100.00
7168;BME280;3625;51.762;14.320;2023-04-08T07:50:08;101380.03;;;9.77;100.00
7168;BME280;3625;51.762;14.320;2023-04-08T07:52:36;101382.00;;;9.25;100.00
7168;BME280;3625;51.762;14.320;2023-04-08T07:55:06;101379.28;;;9.50;100.00
7168;BME280;3625;51.762;14.320;2023-04-08T07:57:35;101378.13;;;10.19;100.00
7168;BME280;3625;51.762;14.320;2023-04-08T08:00:05;101382.59;;;9.99;100.00
7168;BME280;3625;51.762;14.320;2023-04-08T08:02:40;101335.16;;;9.73;100.00
7168;BME280;3625;51.762;14.320;2023-04-08T08:05:09;101387.78;;;10.17;100.00
7168;BME280;3625;51.762;14.320;2023-04-08T08:07:37;101379.91;;;10.11;100.00
7168;BME280;3625;51.762;14.320;2023-04-08T08:10:08;101385.31;;;9.83;100.00
7168;BME280;3625;51.762;14.320;2023-04-08T08:12:36;101400.41;;;9.51;100.00
7168;BME280;3625;51.762;14.320;2023-04-08T08:15:06;101325.69;;;9.09;100.00
7168;BME280;3625;51.762;14.320;2023-04-08T08:17:35;101398.59;;;9.62;100.00
7168;BME280;3625;51.762;14.320;2023-04-08T08:20:06;101396.78;;;9.86;100.00
7168;BME280;3625;51.762;14.320;2023-04-08T08:22:35;101383.44;;;10.10;100.00
7168;BME280;3625;51.762;14.320;2023-04-08T08:25:22;101401.88;;;10.25;100.00
7168;BME280;3625;51.762;14.320;2023-04-08T08:27:52;101408.75;;;10.55;100.00
7168;BME280;3625;51.762;14.320;2023-04-08T08:30:21;101399.72;;;10.82;99.03
7168;BME280;3625;51.762;14.320;2023-04-08T08:32:51;101422.78;;;10.68;94.81
7168;BME280;3625;51.762;14.320;2023-04-08T08:35:21;101424.91;;;9.96;99.19
7168;BME280;3625;51.762;14.320;2023-04-08T08:37:49;101426.69;;;9.89;100.00
7168;BME280;3625;51.762;14.320;2023-04-08T08:40:18;101429.41;;;9.72;100.00
7168;BME280;3625;51.762;14.320;2023-04-08T08:42:50;101433.84;;;9.67;100.00
7168;BME280;3625;51.762;14.320;2023-04-08T08:45:19;101431.97;;;9.89;100.00
7168;BME280;3625;51.762;14.320;2023-04-08T08:47:48;101440.75;;;9.99;99.58
7168;BME280;3625;51.762;14.320;2023-04-08T08:50:18;101424.09;;;9.81;100.00
7168;BME280;3625;51.762;14.320;2023-04-08T08:52:51;101442.69;;;9.37;100.00
7168;BME280;3625;51.762;14.320;2023-04-08T08:55:21;101455.06;;;9.16;100.00
7168;BME280;3625;51.762;14.320;2023-04-08T08:57:52;101457.69;;;8.97;100.00
7168;BME280;3625;51.762;14.320;2023-04-08T09:00:31;101459.44;;;9.00;100.00
7168;BME280;3625;51.762;14.320;2023-04-08T09:03:24;101464.72;;;8.98;100.00
7168;BME280;3625;51.762;14.320;2023-04-08T09:05:56;101461.09;;;9.71;100.00
7168;BME280;3625;51.762;14.320;2023-04-08T09:08:29;101469.91;;;9.71;97.12
7168;BME280;3625;51.762;14.320;2023-04-08T09:11:12;101474.28;;;9.78;95.09
7168;BME280;3625;51.762;14.320;2023-04-08T09:13:41;101474.19;;;10.13;95.42
7168;BME280;3625;51.762;14.320;2023-04-08T09:16:13;101484.72;;;10.32;93.36
7168;BME280;3625;51.762;14.320;2023-04-08T09:18:46;101482.34;;;9.07;94.76
7168;BME280;3625;51.762;14.320;2023-04-08T09:21:16;101470.84;;;9.52;94.69
7168;BME280;3625;51.762;14.320;2023-04-08T09:23:48;101479.66;;;9.10;93.60
7168;BME280;3625;51.762;14.320;2023-04-08T09:26:20;101476.13;;;9.67;93.23
7168;BME280;3625;51.762;14.320;2023-04-08T09:28:59;101468.97;;;10.00;91.58
7168;BME280;3625;51.762;14.320;2023-04-08T09:31:41;101513.00;;;10.07;87.96
7168;BME280;3625;51.762;14.320;2023-04-08T09:34:12;101516.56;;;9.88;87.31
7168;BME280;3625;51.762;14.320;2023-04-08T09:36:41;101521.03;;;9.38;91.23
7168;BME280;3625;51.762;14.320;2023-04-08T09:39:12;101518.38;;;9.26;91.91
7168;BME280;3625;51.762;14.320;2023-04-08T09:41:42;101524.53;;;9.08;90.90
7168;BME280;3625;51.762;14.320;2023-04-08T09:44:11;101516.59;;;8.86;92.76
7168;BME280;3625;51.762;14.320;2023-04-08T09:46:55;101513.97;;;8.92;93.28
7168;BME280;3625;51.762;14.320;2023-04-08T09:49:26;101491.91;;;8.47;94.54
7168;BME280;3625;51.762;14.320;2023-04-08T09:52:06;101525.41;;;8.80;95.46
7168;BME280;3625;51.762;14.320;2023-04-08T09:54:46;101499.72;;;8.27;97.17
7168;BME280;3625;51.762;14.320;2023-04-08T09:57:26;101522.72;;;8.62;98.39
7168;BME280;3625;51.762;14.320;2023-04-08T10:00:03;101525.41;;;8.86;98.10
7168;BME280;3625;51.762;14.320;2023-04-08T10:02:54;101475.19;;;8.48;97.34
7168;BME280;3625;51.762;14.320;2023-04-08T10:05:24;101536.00;;;9.04;97.63
7168;BME280;3625;51.762;14.320;2023-04-08T10:07:55;101530.63;;;8.62;96.25
7168;BME280;3625;51.762;14.320;2023-04-08T10:10:26;101526.16;;;8.37;98.90
7168;BME280;3625;51.762;14.320;2023-04-08T10:12:55;101409.88;;;7.68;97.94
7168;BME280;3625;51.762;14.320;2023-04-08T10:15:28;101529.50;;;8.14;100.00
7168;BME280;3625;51.762;14.320;2023-04-08T10:18:31;101539.28;;;8.29;100.00
7168;BME280;3625;51.762;14.320;2023-04-08T10:21:04;101542.06;;;8.67;100.00
7168;BME280;3625;51.762;14.320;2023-04-08T10:23:55;101542.88;;;8.45;100.00
7168;BME280;3625;51.762;14.320;2023-04-08T10:26:38;101544.72;;;8.64;100.00
7168;BME280;3625;51.762;14.320;2023-04-08T10:29:40;101542.94;;;8.74;98.36
7168;BME280;3625;51.762;14.320;2023-04-08T10:43:32;101558.84;;;9.01;93.41
7168;BME280;3625;51.762;14.320;2023-04-08T10:46:01;101551.72;;;8.62;96.24
7168;BME280;3625;51.762;14.320;2023-04-08T10:48:31;101518.41;;;9.14;93.26
7168;BME280;3625;51.762;14.320;2023-04-08T10:51:02;101557.13;;;9.23;91.56
7168;BME280;3625;51.762;14.320;2023-04-08T10:53:32;101564.19;;;9.37;90.55
7168;BME280;3625;51.762;14.320;2023-04-08T10:56:06;101565.06;;;9.59;87.12
7168;BME280;3625;51.762;14.320;2023-04-08T10:58:46;101565.06;;;9.59;84.87
7168;BME280;3625;51.762;14.320;2023-04-08T11:01:15;101572.09;;;9.69;87.33
7168;BME280;3625;51.762;14.320;2023-04-08T11:03:44;101564.00;;;10.51;84.92
7168;BME280;3625;51.762;14.320;2023-04-08T11:06:13;101569.13;;;10.82;78.31
7168;BME280;3625;51.762;14.320;2023-04-08T11:08:42;101570.28;;;10.03;78.66
7168;BME280;3625;51.762;14.320;2023-04-08T11:11:11;101570.28;;;10.18;81.50
7168;BME280;3625;51.762;14.320;2023-04-08T11:13:44;101527.09;;;10.04;78.90
7168;BME280;3625;51.762;14.320;2023-04-08T11:16:20;101549.88;;;10.48;79.92
7168;BME280;3625;51.762;14.320;2023-04-08T11:18:50;101551.66;;;10.50;78.55
7168;BME280;3625;51.762;14.320;2023-04-08T11:21:19;101587.00;;;10.30;76.52
7168;BME280;3625;51.762;14.320;2023-04-08T11:23:49;101583.50;;;10.06;80.41
7168;BME280;3625;51.762;14.320;2023-04-08T11:26:20;101585.31;;;9.83;80.68
7168;BME280;3625;51.762;14.320;2023-04-08T11:28:50;101583.53;;;9.30;83.61
7168;BME280;3625;51.762;14.320;2023-04-08T11:31:20;101550.09;;;9.08;85.67
7168;BME280;3625;51.762;14.320;2023-04-08T11:33:53;101591.34;;;8.83;89.27
7168;BME280;3625;51.762;14.320;2023-04-08T11:36:22;101593.13;;;8.92;89.88
7168;BME280;3625;51.762;14.320;2023-04-08T11:38:53;101597.59;;;9.19;87.40
7168;BME280;3625;51.762;14.320;2023-04-08T11:41:22;101595.72;;;8.70;89.96
7168;BME280;3625;51.762;14.320;2023-04-08T11:43:55;101531.53;;;8.73;90.14
7168;BME280;3625;51.762;14.320;2023-04-08T11:46:24;101599.38;;;9.30;87.97
7168;BME280;3625;51.762;14.320;2023-04-08T11:49:02;101583.34;;;8.51;90.22
7168;BME280;3625;51.762;14.320;2023-04-08T11:51:31;101601.59;;;8.19;95.26
7168;BME280;3625;51.762;14.320;2023-04-08T11:54:03;101599.09;;;8.41;95.13
7168;BME280;3625;51.762;14.320;2023-04-08T11:56:44;101599.88;;;8.27;95.00
7168;BME280;3625;51.762;14.320;2023-04-08T11:59:15;101597.44;;;8.55;95.93
7168;BME280;3625;51.762;14.320;2023-04-08T12:01:43;101591.03;;;8.16;96.22
7168;BME280;3625;51.762;14.320;2023-04-08T12:04:12;101595.78;;;8.87;95.29
7168;BME280;3625;51.762;14.320;2023-04-08T12:07:17;101613.25;;;8.58;92.71
7168;BME280;3625;51.762;14.320;2023-04-08T12:09:45;101568.25;;;8.30;93.02
7168;BME280;3625;51.762;14.320;2023-04-08T12:12:14;101606.19;;;8.46;94.77
7168;BME280;3625;51.762;14.320;2023-04-08T12:14:44;101611.22;;;8.13;94.82
7168;BME280;3625;51.762;14.320;2023-04-08T12:17:13;101611.25;;;8.22;94.80
7168;BME280;3625;51.762;14.320;2023-04-08T12:19:41;101596.06;;;7.80;97.35
7168;BME280;3625;51.762;14.320;2023-04-08T12:22:10;101615.56;;;8.03;98.18
7168;BME280;3625;51.762;14.320;2023-04-08T12:24:39;101611.97;;;7.96;98.26
7168;BME280;3625;51.762;14.320;2023-04-08T12:27:07;101621.34;;;7.61;100.00
7168;BME280;3625;51.762;14.320;2023-04-08T12:29:36;101616.84;;;7.46;100.00
7168;BME280;3625;51.762;14.320;2023-04-08T12:32:06;101571.19;;;7.44;100.00
7168;BME280;3625;51.762;14.320;2023-04-08T12:34:35;101615.44;;;7.88;100.00
7168;BME280;3625;51.762;14.320;2023-04-08T12:37:03;101619.00;;;7.96;98.95
7168;BME280;3625;51.762;14.320;2023-04-08T12:39:32;101618.25;;;8.14;97.73
7168;BME280;3625;51.762;14.320;2023-04-08T12:42:01;101617.84;;;7.59;98.57
7168;BME280;3625;51.762;14.320;2023-04-08T12:44:29;101616.63;;;8.31;97.19
7168;BME280;3625;51.762;14.320;2023-04-08T12:46:58;101619.47;;;8.69;95.01
7168;BME280;3625;51.762;14.320;2023-04-08T12:49:28;101613.13;;;8.33;92.93
7168;BME280;3625;51.762;14.320;2023-04-08T12:52:00;101616.63;;;8.31;95.65
7168;BME280;3625;51.762;14.320;2023-04-08T12:54:30;101623.47;;;8.08;96.06
7168;BME280;3625;51.762;14.320;2023-04-08T12:56:59;101616.31;;;7.85;97.19
7168;BME280;3625;51.762;14.320;2023-04-08T12:59:27;101614.47;;;7.75;97.82
7168;BME280;3625;51.762;14.320;2023-04-08T13:01:56;101619.25;;;8.29;98.03
7168;BME280;3625;51.762;14.320;2023-04-08T13:04:25;101591.13;;;8.31;94.89
7168;BME280;3625;51.762;14.320;2023-04-08T13:06:54;101616.81;;;8.69;94.09
7168;BME280;3625;51.762;14.320;2023-04-08T13:09:23;101617.81;;;8.98;92.77
7168;BME280;3625;51.762;14.320;2023-04-08T13:11:52;101615.03;;;8.62;91.64
7168;BME280;3625;51.762;14.320;2023-04-08T13:14:20;101627.38;;;8.70;90.66
7168;BME280;3625;51.762;14.320;2023-04-08T13:16:49;101578.00;;;8.41;90.42
7168;BME280;3625;51.762;14.320;2023-04-08T13:19:18;101628.81;;;8.15;91.38
7168;BME280;3625;51.762;14.320;2023-04-08T13:21:47;101627.75;;;7.89;92.78
7168;BME280;3625;51.762;14.320;2023-04-08T13:24:17;101628.97;;;8.37;91.96
7168;BME280;3625;51.762;14.320;2023-04-08T13:26:45;101603.59;;;8.60;90.24
7168;BME280;3625;51.762;14.320;2023-04-08T13:29:14;101598.38;;;8.78;88.35
7168;BME280;3625;51.762;14.320;2023-04-08T13:31:42;101633.69;;;9.07;87.22
7168;BME280;3625;51.762;14.320;2023-04-08T13:34:11;101638.03;;;8.96;85.60